sensor_id;sensor_type;location;lat;lon;timestamp;temperature;humidity
13375;DHT22;6756;51.354;15.754;2023-08-06T00:01:04;14.40;99.90
13375;DHT22;6756;51.354;15.754;2023-08-06T00:05:05;14.40;99.90
13375;DHT22;6756;51.354;15.754;2023-08-06T00:09:06;14.40;99.90
13375;DHT22;6756;51.354;15.754;2023-08-06T00:13:06;14.40;99.90
13375;DHT22;6756;51.354;15.754;2023-08-06T00:17:07;14.40;99.90
13375;DHT22;6756;51.354;15.754;2023-08-06T00:21:08;14.40;99.90
13375;DHT22;6756;51.354;15.754;2023-08-06T00:25:09;14.40;99.90
13375;DHT22;6756;51.354;15.754;2023-08-06T00:29:09;14.30;99.90
13375;DHT22;6756;51.354;15.754;2023-08-06T00:33:10;14.30;99.90
13375;DHT22;6756;51.354;15.754;2023-08-06T00:37:11;14.30;99.90
13375;DHT22;6756;51.354;15.754;2023-08-06T00:41:15;14.30;99.90
13375;DHT22;6756;51.354;15.754;2023-08-06T00:45:15;14.30;99.90
13375;DHT22;6756;51.354;15.754;2023-08-06T00:49:16;14.30;99.90
13375;DHT22;6756;51.354;15.754;2023-08-06T00:53:17;14.30;99.90
13375;DHT22;6756;51.354;15.754;2023-08-06T00:57:18;14.20;99.90
13375;DHT22;6756;51.354;15.754;2023-08-06T01:01:20;14.20;99.90
13375;DHT22;6756;51.354;15.754;2023-08-06T01:05:21;14.20;99.90
13375;DHT22;6756;51.354;15.754;2023-08-06T01:13:49;14.20;99.90
13375;DHT22;6756;51.354;15.754;2023-08-06T01:17:52;14.10;99.90
13375;DHT22;6756;51.354;15.754;2023-08-06T01:21:53;14.10;99.90
13375;DHT22;6756;51.354;15.754;2023-08-06T01:30:29;14.10;99.90
13375;DHT22;6756;51.354;15.754;2023-08-06T01:34:32;14.00;99.90
13375;DHT22;6756;51.354;15.754;2023-08-06T01:38:34;14.00;99.90
13375;DHT22;6756;51.354;15.754;2023-08-06T01:42:35;14.00;99.90
13375;DHT22;6756;51.354;15.754;2023-08-06T01:46:35;14.00;99.90
13375;DHT22;6756;51.354;15.754;2023-08-06T01:50:36;14.00;99.90
13375;DHT22;6756;51.354;15.754;2023-08-06T01:54:37;13.90;99.90
13375;DHT22;6756;51.354;15.754;2023-08-06T01:58:38;13.90;99.90
13375;DHT22;6756;51.354;15.754;2023-08-06T02:02:38;13.90;99.90
13375;DHT22;6756;51.354;15.754;2023-08-06T02:06:41;13.90;99.90
13375;DHT22;6756;51.354;15.754;2023-08-06T02:10:42;13.90;99.90
13375;DHT22;6756;51.354;15.754;2023-08-06T02:14:43;13.90;99.90
13375;DHT22;6756;51.354;15.754;2023-08-06T02:18:43;13.80;99.90
13375;DHT22;6756;51.354;15.754;2023-08-06T02:22:44;13.80;99.90
13375;DHT22;6756;51.354;15.754;2023-08-06T02:26:45;13.80;99.90
13375;DHT22;6756;51.354;15.754;2023-08-06T02:30:53;13.80;99.90
13375;DHT22;6756;51.354;15.754;2023-08-06T02:34:54;13.80;99.90
13375;DHT22;6756;51.354;15.754;2023-08-06T02:38:55;13.80;99.90
13375;DHT22;6756;51.354;15.754;2023-08-06T02:42:56;13.80;99.90
13375;DHT22;6756;51.354;15.754;2023-08-06T02:46:57;13.80;99.90
13375;DHT22;6756;51.354;15.754;2023-08-06T02:50:58;13.80;99.90
13375;DHT22;6756;51.354;15.754;2023-08-06T02:54:59;13.80;99.90
13375;DHT22;6756;51.354;15.754;2023-08-06T02:59:00;13.80;99.90
13375;DHT22;6756;51.354;15.754;2023-08-06T03:03:01;13.80;99.90
13375;DHT22;6756;51.354;15.754;2023-08-06T03:07:02;13.80;99.90
13375;DHT22;6756;51.354;15.754;2023-08-06T03:11:02;13.80;99.90
13375;DHT22;6756;51.354;15.754;2023-08-06T03:15:03;13.70;99.90
13375;DHT22;6756;51.354;15.754;2023-08-06T03:19:04;13.70;99.90
13375;DHT22;6756;51.354;15.754;2023-08-06T03:23:05;13.70;99.90
13375;DHT22;6756;51.354;15.754;2023-08-06T03:27:06;13.70;99.90
13375;DHT22;6756;51.354;15.754;2023-08-06T03:31:07;13.60;99.90
13375;DHT22;6756;51.354;15.754;2023-08-06T03:35:08;13.70;99.90
13375;DHT22;6756;51.354;15.754;2023-08-06T03:39:09;13.60;99.90
13375;DHT22;6756;51.354;15.754;2023-08-06T03:43:14;13.60;99.90
13375;DHT22;6756;51.354;15.754;2023-08-06T03:47:15;13.60;99.90
13375;DHT22;6756;51.354;15.754;2023-08-06T03:51:15;13.60;99.90
13375;DHT22;6756;51.354;15.754;2023-08-06T03:55:16;13.60;99.90
13375;DHT22;6756;51.354;15.754;2023-08-06T03:59:17;13.50;99.90
13375;DHT22;6756;51.354;15.754;2023-08-06T04:03:18;13.60;99.90
13375;DHT22;6756;51.354;15.754;2023-08-06T04:07:19;13.60;99.90
13375;DHT22;6756;51.354;15.754;2023-08-06T04:11:20;13.60;99.90
13375;DHT22;6756;51.354;15.754;2023-08-06T04:15:23;13.60;99.90
13375;DHT22;6756;51.354;15.754;2023-08-06T04:19:24;13.60;99.90
13375;DHT22;6756;51.354;15.754;2023-08-06T04:23:25;13.60;99.90
13375;DHT22;6756;51.354;15.754;2023-08-06T04:27:25;13.60;99.90
13375;DHT22;6756;51.354;15.754;2023-08-06T04:31:26;13.60;99.90
13375;DHT22;6756;51.354;15.754;2023-08-06T04:35:27;13.60;99.90
13375;DHT22;6756;51.354;15.754;2023-08-06T04:39:28;13.60;99.90
13375;DHT22;6756;51.354;15.754;2023-08-06T04:43:28;13.60;99.90
13375;DHT22;6756;51.354;15.754;2023-08-06T04:47:29;13.60;99.90
13375;DHT22;6756;51.354;15.754;2023-08-06T04:51:30;13.70;99.90
13375;DHT22;6756;51.354;15.754;2023-08-06T04:55:31;13.60;99.90
13375;DHT22;6756;51.354;15.754;2023-08-06T04:59:32;13.70;99.90
13375;DHT22;6756;51.354;15.754;2023-08-06T05:03:32;13.60;99.90
13375;DHT22;6756;51.354;15.754;2023-08-06T05:07:33;13.70;99.90
13375;DHT22;6756;51.354;15.754;2023-08-06T05:11:34;13.70;99.90
13375;DHT22;6756;51.354;15.754;2023-08-06T05:15:35;13.70;99.90
13375;DHT22;6756;51.354;15.754;2023-08-06T05:19:35;13.70;99.90
13375;DHT22;6756;51.354;15.754;2023-08-06T05:23:36;13.70;99.90
13375;DHT22;6756;51.354;15.754;2023-08-06T05:27:37;13.70;99.90
13375;DHT22;6756;51.354;15.754;2023-08-06T05:31:38;13.80;99.90
13375;DHT22;6756;51.354;15.754;2023-08-06T05:35:40;13.80;99.90
13375;DHT22;6756;51.354;15.754;2023-08-06T05:39:41;13.90;99.90
13375;DHT22;6756;51.354;15.754;2023-08-06T05:43:42;13.90;99.90
13375;DHT22;6756;51.354;15.754;2023-08-06T05:47:43;13.90;99.90
13375;DHT22;6756;51.354;15.754;2023-08-06T05:51:46;13.90;99.90
13375;DHT22;6756;51.354;15.754;2023-08-06T05:55:47;13.90;99.90
13375;DHT22;6756;51.354;15.754;2023-08-06T05:59:48;13.90;99.90
13375;DHT22;6756;51.354;15.754;2023-08-06T06:03:49;13.80;99.90
13375;DHT22;6756;51.354;15.754;2023-08-06T06:07:50;13.80;99.90
13375;DHT22;6756;51.354;15.754;2023-08-06T06:11:51;13.90;99.90
13375;DHT22;6756;51.354;15.754;2023-08-06T06:15:54;13.80;99.90
13375;DHT22;6756;51.354;15.754;2023-08-06T06:19:56;13.90;99.90
13375;DHT22;6756;51.354;15.754;2023-08-06T06:23:57;13.80;99.90
13375;DHT22;6756;51.354;15.754;2023-08-06T06:27:58;13.90;99.90
13375;DHT22;6756;51.354;15.754;2023-08-06T06:31:59;13.90;99.90
13375;DHT22;6756;51.354;15.754;2023-08-06T06:36:00;13.90;99.90
13375;DHT22;6756;51.354;15.754;2023-08-06T06:40:01;13.90;99.90
13375;DHT22;6756;51.354;15.754;2023-08-06T06:44:01;13.90;99.90
13375;DHT22;6756;51.354;15.754;2023-08-06T06:48:02;13.90;99.90
13375;DHT22;6756;51.354;15.754;2023-08-06T06:52:03;14.00;99.90
13375;DHT22;6756;51.354;15.754;2023-08-06T06:56:04;14.00;99.90
13375;DHT22;6756;51.354;15.754;2023-08-06T07:00:06;14.10;99.90
13375;DHT22;6756;51.354;15.754;2023-08-06T07:04:07;14.10;99.90
13375;DHT22;6756;51.354;15.754;2023-08-06T07:08:07;14.20;99.90
13375;DHT22;6756;51.354;15.754;2023-08-06T07:12:08;14.10;99.90
13375;DHT22;6756;51.354;15.754;2023-08-06T07:16:09;14.20;99.90
13375;DHT22;6756;51.354;15.754;2023-08-06T07:20:10;14.10;99.90
13375;DHT22;6756;51.354;15.754;2023-08-06T07:24:10;14.10;99.90
13375;DHT22;6756;51.354;15.754;2023-08-06T07:28:13;14.20;99.90
13375;DHT22;6756;51.354;15.754;2023-08-06T07:32:14;14.20;99.90
13375;DHT22;6756;51.354;15.754;2023-08-06T07:36:15;14.20;99.90
13375;DHT22;6756;51.354;15.754;2023-08-06T07:40:17;14.10;99.90
13375;DHT22;6756;51.354;15.754;2023-08-06T07:44:18;14.10;99.90
13375;DHT22;6756;51.354;15.754;2023-08-06T07:48:19;14.10;99.90
13375;DHT22;6756;51.354;15.754;2023-08-06T07:52:19;14.10;99.90
13375;DHT22;6756;51.354;15.754;2023-08-06T07:56:20;14.10;99.90
13375;DHT22;6756;51.354;15.754;2023-08-06T08:00:22;14.20;99.90
13375;DHT22;6756;51.354;15.754;2023-08-06T08:04:23;14.20;99.90
13375;DHT22;6756;51.354;15.754;2023-08-06T08:08:25;14.20;99.90
13375;DHT22;6756;51.354;15.754;2023-08-06T08:12:26;14.20;99.90
13375;DHT22;6756;51.354;15.754;2023-08-06T08:16:27;14.20;99.90
13375;DHT22;6756;51.354;15.754;2023-08-06T08:20:27;14.30;99.90
13375;DHT22;6756;51.354;15.754;2023-08-06T08:24:32;14.30;99.90
13375;DHT22;6756;51.354;15.754;2023-08-06T08:28:32;14.30;99.90
13375;DHT22;6756;51.354;15.754;2023-08-06T08:32:33;14.30;99.90
13375;DHT22;6756;51.354;15.754;2023-08-06T08:36:35;14.30;99.90
13375;DHT22;6756;51.354;15.754;2023-08-06T08:40:45;14.30;99.90
13375;DHT22;6756;51.354;15.754;2023-08-06T08:44:47;14.30;99.90
13375;DHT22;6756;51.354;15.754;2023-08-06T08:48:48;14.30;99.90
13375;DHT22;6756;51.354;15.754;2023-08-06T08:52:50;14.30;99.90
13375;DHT22;6756;51.354;15.754;2023-08-06T08:56:51;14.20;99.90
13375;DHT22;6756;51.354;15.754;2023-08-06T09:00:52;14.20;99.90
13375;DHT22;6756;51.354;15.754;2023-08-06T09:04:56;14.20;99.90
13375;DHT22;6756;51.354;15.754;2023-08-06T09:09:08;14.20;99.90
13375;DHT22;6756;51.354;15.754;2023-08-06T09:13:09;14.30;99.90
13375;DHT22;6756;51.354;15.754;2023-08-06T09:17:13;14.30;99.90
13375;DHT22;6756;51.354;15.754;2023-08-06T09:21:14;14.40;99.90
13375;DHT22;6756;51.354;15.754;2023-08-06T09:25:25;14.50;99.90
13375;DHT22;6756;51.354;15.754;2023-08-06T09:29:31;14.60;99.90
13375;DHT22;6756;51.354;15.754;2023-08-06T09:33:32;14.60;99.90
13375;DHT22;6756;51.354;15.754;2023-08-06T09:37:36;14.60;99.90
13375;DHT22;6756;51.354;15.754;2023-08-06T09:41:37;14.50;99.90
13375;DHT22;6756;51.354;15.754;2023-08-06T09:45:38;14.60;99.90
13375;DHT22;6756;51.354;15.754;2023-08-06T09:49:40;14.60;99.90
13375;DHT22;6756;51.354;15.754;2023-08-06T09:53:48;14.60;99.90
13375;DHT22;6756;51.354;15.754;2023-08-06T09:57:50;14.60;99.90
13375;DHT22;6756;51.354;15.754;2023-08-06T10:01:51;14.60;99.90
13375;DHT22;6756;51.354;15.754;2023-08-06T10:05:55;14.50;99.90
13375;DHT22;6756;51.354;15.754;2023-08-06T10:09:58;14.50;99.90
13375;DHT22;6756;51.354;15.754;2023-08-06T10:14:28;14.50;99.90
13375;DHT22;6756;51.354;15.754;2023-08-06T10:18:31;14.50;99.90
13375;DHT22;6756;51.354;15.754;2023-08-06T10:22:33;14.50;99.90
13375;DHT22;6756;51.354;15.754;2023-08-06T10:26:34;14.60;99.90
13375;DHT22;6756;51.354;15.754;2023-08-06T10:30:49;14.60;99.90
13375;DHT22;6756;51.354;15.754;2023-08-06T10:38:59;14.60;99.90
13375;DHT22;6756;51.354;15.754;2023-08-06T10:43:03;14.50;99.90
13375;DHT22;6756;51.354;15.754;2023-08-06T10:47:43;14.50;99.90
13375;DHT22;6756;51.354;15.754;2023-08-06T10:51:44;14.50;99.90
13375;DHT22;6756;51.354;15.754;2023-08-06T10:55:45;14.60;99.90
13375;DHT22;6756;51.354;15.754;2023-08-06T10:59:46;14.60;99.90
13375;DHT22;6756;51.354;15.754;2023-08-06T11:03:47;14.60;99.90
13375;DHT22;6756;51.354;15.754;2023-08-06T11:07:50;14.70;99.90
13375;DHT22;6756;51.354;15.754;2023-08-06T11:11:52;14.70;99.90
13375;DHT22;6756;51.354;15.754;2023-08-06T11:15:53;14.80;99.90
13375;DHT22;6756;51.354;15.754;2023-08-06T11:19:54;14.80;99.90
13375;DHT22;6756;51.354;15.754;2023-08-06T11:23:55;14.80;99.90
13375;DHT22;6756;51.354;15.754;2023-08-06T11:27:56;14.80;99.90
13375;DHT22;6756;51.354;15.754;2023-08-06T11:32:04;14.80;99.90
13375;DHT22;6756;51.354;15.754;2023-08-06T11:36:05;14.90;99.90
13375;DHT22;6756;51.354;15.754;2023-08-06T11:40:09;14.90;99.90
13375;DHT22;6756;51.354;15.754;2023-08-06T11:44:11;14.90;99.90
13375;DHT22;6756;51.354;15.754;2023-08-06T11:48:14;15.00;99.90
13375;DHT22;6756;51.354;15.754;2023-08-06T11:52:25;14.90;99.90
13375;DHT22;6756;51.354;15.754;2023-08-06T11:56:27;15.00;99.90
13375;DHT22;6756;51.354;15.754;2023-08-06T12:00:29;15.10;99.90
13375;DHT22;6756;51.354;15.754;2023-08-06T12:04:29;15.10;99.90
13375;DHT22;6756;51.354;15.754;2023-08-06T12:08:30;15.10;99.90
13375;DHT22;6756;51.354;15.754;2023-08-06T12:12:31;15.20;99.90
13375;DHT22;6756;51.354;15.754;2023-08-06T12:16:32;15.10;99.90
13375;DHT22;6756;51.354;15.754;2023-08-06T12:20:33;15.20;99.90
13375;DHT22;6756;51.354;15.754;2023-08-06T12:24:34;15.20;99.90
13375;DHT22;6756;51.354;15.754;2023-08-06T12:28:34;15.20;99.90
13375;DHT22;6756;51.354;15.754;2023-08-06T12:32:36;15.20;99.90
13375;DHT22;6756;51.354;15.754;2023-08-06T12:36:36;15.30;99.90
13375;DHT22;6756;51.354;15.754;2023-08-06T12:40:37;15.40;99.90
13375;DHT22;6756;51.354;15.754;2023-08-06T12:44:38;15.40;99.90
13375;DHT22;6756;51.354;15.754;2023-08-06T12:48:39;15.40;99.90
13375;DHT22;6756;51.354;15.754;2023-08-06T12:52:40;15.40;99.90
13375;DHT22;6756;51.354;15.754;2023-08-06T12:56:41;15.50;99.90
13375;DHT22;6756;51.354;15.754;2023-08-06T13:00:42;15.60;99.90
13375;DHT22;6756;51.354;15.754;2023-08-06T13:04:42;15.60;99.90
13375;DHT22;6756;51.354;15.754;2023-08-06T13:08:43;15.50;99.90
13375;DHT22;6756;51.354;15.754;2023-08-06T13:12:44;15.60;99.90
13375;DHT22;6756;51.354;15.754;2023-08-06T13:16:45;15.60;99.90
13375;DHT22;6756;51.354;15.754;2023-08-06T13:20:46;15.60;99.90
13375;DHT22;6756;51.354;15.754;2023-08-06T13:24:49;15.70;99.90
13375;DHT22;6756;51.354;15.754;2023-08-06T13:28:50;15.70;99.90
13375;DHT22;6756;51.354;15.754;2023-08-06T13:32:51;15.70;99.90
13375;DHT22;6756;51.354;15.754;2023-08-06T13:36:52;15.60;99.90
13375;DHT22;6756;51.354;15.754;2023-08-06T13:40:53;15.60;99.90
13375;DHT22;6756;51.354;15.754;2023-08-06T13:44:54;15.60;99.90
13375;DHT22;6756;51.354;15.754;2023-08-06T13:49:00;15.50;99.90
13375;DHT22;6756;51.354;15.754;2023-08-06T13:53:00;15.60;99.90
13375;DHT22;6756;51.354;15.754;2023-08-06T13:57:02;15.50;99.90
13375;DHT22;6756;51.354;15.754;2023-08-06T14:01:04;15.60;99.90
13375;DHT22;6756;51.354;15.754;2023-08-06T14:05:05;15.60;99.90
13375;DHT22;6756;51.354;15.754;2023-08-06T14:09:07;15.50;99.90
13375;DHT22;6756;51.354;15.754;2023-08-06T14:13:09;15.50;99.90
13375;DHT22;6756;51.354;15.754;2023-08-06T14:17:10;15.50;99.90
13375;DHT22;6756;51.354;15.754;2023-08-06T14:21:10;15.50;99.90
13375;DHT22;6756;51.354;15.754;2023-08-06T14:25:14;15.50;99.90
13375;DHT22;6756;51.354;15.754;2023-08-06T14:29:15;15.50;99.90
13375;DHT22;6756;51.354;15.754;2023-08-06T14:33:16;15.60;99.90
13375;DHT22;6756;51.354;15.754;2023-08-06T14:37:17;15.60;99.90
13375;DHT22;6756;51.354;15.754;2023-08-06T14:41:17;15.70;99.90
13375;DHT22;6756;51.354;15.754;2023-08-06T14:45:18;15.70;99.90
13375;DHT22;6756;51.354;15.754;2023-08-06T14:49:19;15.60;99.90
13375;DHT22;6756;51.354;15.754;2023-08-06T14:53:20;15.60;99.90
13375;DHT22;6756;51.354;15.754;2023-08-06T14:57:23;15.60;99.90
13375;DHT22;6756;51.354;15.754;2023-08-06T15:01:30;15.50;99.90
13375;DHT22;6756;51.354;15.754;2023-08-06T15:05:31;15.50;99.90
13375;DHT22;6756;51.354;15.754;2023-08-06T15:09:32;15.70;99.90
13375;DHT22;6756;51.354;15.754;2023-08-06T15:13:33;15.60;99.90
13375;DHT22;6756;51.354;15.754;2023-08-06T15:17:34;15.60;99.90
13375;DHT22;6756;51.354;15.754;2023-08-06T15:21:35;15.60;99.90
13375;DHT22;6756;51.354;15.754;2023-08-06T15:25:36;15.50;99.90
13375;DHT22;6756;51.354;15.754;2023-08-06T15:29:38;15.60;99.90
13375;DHT22;6756;51.354;15.754;2023-08-06T15:33:39;15.60;99.90
13375;DHT22;6756;51.354;15.754;2023-08-06T15:37:40;15.50;99.90
13375;DHT22;6756;51.354;15.754;2023-08-06T15:41:41;15.40;99.90
13375;DHT22;6756;51.354;15.754;2023-08-06T15:45:42;15.20;99.90
13375;DHT22;6756;51.354;15.754;2023-08-06T15:49:45;15.20;99.90
13375;DHT22;6756;51.354;15.754;2023-08-06T15:53:46;15.10;99.90
13375;DHT22;6756;51.354;15.754;2023-08-06T15:57:48;15.20;99.90
13375;DHT22;6756;51.354;15.754;2023-08-06T16:01:49;15.20;99.90
13375;DHT22;6756;51.354;15.754;2023-08-06T16:05:50;15.10;99.90
13375;DHT22;6756;51.354;15.754;2023-08-06T16:09:53;15.10;99.90
13375;DHT22;6756;51.354;15.754;2023-08-06T16:13:54;15.10;99.90
13375;DHT22;6756;51.354;15.754;2023-08-06T16:17:56;15.10;99.90
13375;DHT22;6756;51.354;15.754;2023-08-06T16:21:57;15.20;99.90
13375;DHT22;6756;51.354;15.754;2023-08-06T16:25:58;15.20;99.90
13375;DHT22;6756;51.354;15.754;2023-08-06T16:29:59;15.10;99.90
13375;DHT22;6756;51.354;15.754;2023-08-06T16:34:00;15.10;99.90
13375;DHT22;6756;51.354;15.754;2023-08-06T16:38:00;15.00;99.90
13375;DHT22;6756;51.354;15.754;2023-08-06T16:42:01;15.00;99.90
13375;DHT22;6756;51.354;15.754;2023-08-06T16:46:02;15.00;99.90
13375;DHT22;6756;51.354;15.754;2023-08-06T16:50:04;15.00;99.90
13375;DHT22;6756;51.354;15.754;2023-08-06T16:54:06;14.90;99.90
13375;DHT22;6756;51.354;15.754;2023-08-06T16:58:07;14.90;99.90
13375;DHT22;6756;51.354;15.754;2023-08-06T17:02:08;14.80;99.90
13375;DHT22;6756;51.354;15.754;2023-08-06T17:06:09;14.80;99.90
13375;DHT22;6756;51.354;15.754;2023-08-06T17:10:15;14.70;99.90
13375;DHT22;6756;51.354;15.754;2023-08-06T17:14:20;14.70;99.90
13375;DHT22;6756;51.354;15.754;2023-08-06T17:18:21;14.60;99.90
13375;DHT22;6756;51.354;15.754;2023-08-06T17:22:22;14.60;99.90
13375;DHT22;6756;51.354;15.754;2023-08-06T17:26:22;14.50;99.90
13375;DHT22;6756;51.354;15.754;2023-08-06T17:30:23;14.50;99.90
13375;DHT22;6756;51.354;15.754;2023-08-06T17:34:24;14.50;99.90
13375;DHT22;6756;51.354;15.754;2023-08-06T17:38:25;14.40;99.90
13375;DHT22;6756;51.354;15.754;2023-08-06T17:42:26;14.40;99.90
13375;DHT22;6756;51.354;15.754;2023-08-06T17:46:27;14.40;99.90
13375;DHT22;6756;51.354;15.754;2023-08-06T17:50:28;14.40;99.90
13375;DHT22;6756;51.354;15.754;2023-08-06T17:54:29;14.40;99.90
13375;DHT22;6756;51.354;15.754;2023-08-06T17:58:29;14.40;99.90
13375;DHT22;6756;51.354;15.754;2023-08-06T18:02:30;14.50;99.90
13375;DHT22;6756;51.354;15.754;2023-08-06T18:06:31;14.40;99.90
13375;DHT22;6756;51.354;15.754;2023-08-06T18:10:32;14.40;99.90
13375;DHT22;6756;51.354;15.754;2023-08-06T18:14:32;14.40;99.90
13375;DHT22;6756;51.354;15.754;2023-08-06T18:18:33;14.50;99.90
13375;DHT22;6756;51.354;15.754;2023-08-06T18:22:34;14.50;99.90
13375;DHT22;6756;51.354;15.754;2023-08-06T18:26:35;14.50;99.90
13375;DHT22;6756;51.354;15.754;2023-08-06T18:30:36;14.40;99.90
13375;DHT22;6756;51.354;15.754;2023-08-06T18:34:37;14.40;99.90
13375;DHT22;6756;51.354;15.754;2023-08-06T18:38:39;14.40;99.90
13375;DHT22;6756;51.354;15.754;2023-08-06T18:42:40;14.30;99.90
13375;DHT22;6756;51.354;15.754;2023-08-06T18:46:41;14.30;99.90
13375;DHT22;6756;51.354;15.754;2023-08-06T18:50:45;14.30;99.90
13375;DHT22;6756;51.354;15.754;2023-08-06T18:54:46;14.30;99.90
13375;DHT22;6756;51.354;15.754;2023-08-06T18:58:47;14.30;99.90
13375;DHT22;6756;51.354;15.754;2023-08-06T19:02:48;14.30;99.90
13375;DHT22;6756;51.354;15.754;2023-08-06T19:06:49;14.30;99.90
13375;DHT22;6756;51.354;15.754;2023-08-06T19:10:50;14.30;99.90
13375;DHT22;6756;51.354;15.754;2023-08-06T19:14:51;14.40;99.90
13375;DHT22;6756;51.354;15.754;2023-08-06T19:18:52;14.40;99.90
13375;DHT22;6756;51.354;15.754;2023-08-06T19:22:53;14.40;99.90
13375;DHT22;6756;51.354;15.754;2023-08-06T19:26:54;14.40;99.90
13375;DHT22;6756;51.354;15.754;2023-08-06T19:30:55;14.40;99.90
13375;DHT22;6756;51.354;15.754;2023-08-06T19:34:57;14.40;99.90
13375;DHT22;6756;51.354;15.754;2023-08-06T19:38:58;14.40;99.90
13375;DHT22;6756;51.354;15.754;2023-08-06T19:42:58;14.40;99.90
13375;DHT22;6756;51.354;15.754;2023-08-06T19:46:59;14.30;99.90
13375;DHT22;6756;51.354;15.754;2023-08-06T19:51:05;14.40;99.90
13375;DHT22;6756;51.354;15.754;2023-08-06T19:55:06;14.30;99.90
13375;DHT22;6756;51.354;15.754;2023-08-06T19:59:09;14.30;99.90
13375;DHT22;6756;51.354;15.754;2023-08-06T20:03:10;14.30;99.90
13375;DHT22;6756;51.354;15.754;2023-08-06T20:07:10;14.20;99.90
13375;DHT22;6756;51.354;15.754;2023-08-06T20:11:12;14.20;99.90
13375;DHT22;6756;51.354;15.754;2023-08-06T20:15:14;14.20;99.90
13375;DHT22;6756;51.354;15.754;2023-08-06T20:19:15;14.10;99.90
13375;DHT22;6756;51.354;15.754;2023-08-06T20:23:16;14.10;99.90
13375;DHT22;6756;51.354;15.754;2023-08-06T20:27:17;14.10;99.90
13375;DHT22;6756;51.354;15.754;2023-08-06T20:31:18;14.00;99.90
13375;DHT22;6756;51.354;15.754;2023-08-06T20:35:19;14.00;99.90
13375;DHT22;6756;51.354;15.754;2023-08-06T20:39:19;14.00;99.90
13375;DHT22;6756;51.354;15.754;2023-08-06T20:43:20;14.00;99.90
13375;DHT22;6756;51.354;15.754;2023-08-06T20:47:21;14.00;99.90
13375;DHT22;6756;51.354;15.754;2023-08-06T20:51:22;14.00;99.90
13375;DHT22;6756;51.354;15.754;2023-08-06T20:55:26;13.90;99.90
13375;DHT22;6756;51.354;15.754;2023-08-06T20:59:27;13.90;99.90
13375;DHT22;6756;51.354;15.754;2023-08-06T21:03:29;13.90;99.90
13375;DHT22;6756;51.354;15.754;2023-08-06T21:07:31;13.90;99.90
13375;DHT22;6756;51.354;15.754;2023-08-06T21:11:32;13.80;99.90
13375;DHT22;6756;51.354;15.754;2023-08-06T21:15:33;13.80;99.90
13375;DHT22;6756;51.354;15.754;2023-08-06T21:19:34;13.80;99.90
13375;DHT22;6756;51.354;15.754;2023-08-06T21:23:34;13.70;99.90
13375;DHT22;6756;51.354;15.754;2023-08-06T21:27:35;13.70;99.90
13375;DHT22;6756;51.354;15.754;2023-08-06T21:31:37;13.70;99.90
13375;DHT22;6756;51.354;15.754;2023-08-06T21:35:38;13.60;99.90
13375;DHT22;6756;51.354;15.754;2023-08-06T21:39:39;13.60;99.90
13375;DHT22;6756;51.354;15.754;2023-08-06T21:43:43;13.60;99.90
13375;DHT22;6756;51.354;15.754;2023-08-06T21:47:47;13.50;99.90
13375;DHT22;6756;51.354;15.754;2023-08-06T21:51:48;13.50;99.90
13375;DHT22;6756;51.354;15.754;2023-08-06T21:55:49;13.50;99.90
13375;DHT22;6756;51.354;15.754;2023-08-06T21:59:50;13.40;99.90
13375;DHT22;6756;51.354;15.754;2023-08-06T22:03:51;13.40;99.90
13375;DHT22;6756;51.354;15.754;2023-08-06T22:07:51;13.40;99.90
13375;DHT22;6756;51.354;15.754;2023-08-06T22:11:53;13.40;99.90
13375;DHT22;6756;51.354;15.754;2023-08-06T22:15:53;13.40;99.90
13375;DHT22;6756;51.354;15.754;2023-08-06T22:19:54;13.40;99.90
13375;DHT22;6756;51.354;15.754;2023-08-06T22:23:55;13.30;99.90
13375;DHT22;6756;51.354;15.754;2023-08-06T22:27:57;13.30;99.90
13375;DHT22;6756;51.354;15.754;2023-08-06T22:31:58;13.30;99.90
13375;DHT22;6756;51.354;15.754;2023-08-06T22:36:00;13.30;99.90
13375;DHT22;6756;51.354;15.754;2023-08-06T22:40:00;13.30;99.90
13375;DHT22;6756;51.354;15.754;2023-08-06T22:44:03;13.30;99.90
13375;DHT22;6756;51.354;15.754;2023-08-06T22:48:04;13.30;99.90
13375;DHT22;6756;51.354;15.754;2023-08-06T22:52:05;13.30;99.90
13375;DHT22;6756;51.354;15.754;2023-08-06T22:56:06;13.30;99.90
13375;DHT22;6756;51.354;15.754;2023-08-06T23:00:07;13.30;99.90
13375;DHT22;6756;51.354;15.754;2023-08-06T23:04:08;13.30;99.90
13375;DHT22;6756;51.354;15.754;2023-08-06T23:08:09;13.20;99.90
13375;DHT22;6756;51.354;15.754;2023-08-06T23:12:10;13.20;99.90
13375;DHT22;6756;51.354;15.754;2023-08-06T23:16:11;13.20;99.90
13375;DHT22;6756;51.354;15.754;2023-08-06T23:20:12;13.20;99.90
13375;DHT22;6756;51.354;15.754;2023-08-06T23:24:13;13.30;99.90
13375;DHT22;6756;51.354;15.754;2023-08-06T23:28:14;13.30;99.90
13375;DHT22;6756;51.354;15.754;2023-08-06T23:32:15;13.20;99.90
13375;DHT22;6756;51.354;15.754;2023-08-06T23:36:15;13.20;99.90
13375;DHT22;6756;51.354;15.754;2023-08-06T23:40:16;13.10;99.90
13375;DHT22;6756;51.354;15.754;2023-08-06T23:44:17;13.10;99.90
13375;DHT22;6756;51.354;15.754;2023-08-06T23:48:18;13.10;99.90
13375;DHT22;6756;51.354;15.754;2023-08-06T23:52:19;13.10;99.90
13375;DHT22;6756;51.354;15.754;2023-08-06T23:56:20;13.10;99.90
